Stations météo

Publicité
Besancon, France (7288): Température de l'air & dewpoint: 20.09.2020 03:00:00 - 26.09.2020 03:00:00 (CEST)Besancon, France (7288): Température de l'air 5cm: 20.09.2020 03:00:00 - 26.09.2020 03:00:00 (CEST)Besancon, France (7288): Température de l'air -20cm & Température de l'air -100cm: 20.09.2020 03:00:00 - 26.09.2020 03:00:00 (CEST)Besancon, France (7288): Vitesse du vent & gusts: 20.09.2020 03:00:00 - 26.09.2020 03:00:00 (CEST)Besancon, France (7288): Direction du vent: 20.09.2020 03:00:00 - 26.09.2020 03:00:00 (CEST)Besancon, France (7288): reduced air pressure: 20.09.2020 03:00:00 - 26.09.2020 03:00:00 (CEST)Besancon, France (7288): Ensoleillement: 20.09.2020 03:00:00 - 26.09.2020 03:00:00 (CEST)Besancon, France (7288): Quantités de précipitations: 20.09.2020 03:00:00 - 26.09.2020 03:00:00 (CEST)
Date & Time tt [°C] td [°C] tt 5cm [°C] tt -20cm [°C] tt -100cm [°C] ff [km/h] ff [knt] fx [km/h] fx [knt] dd ppp [hPa] sd [min] rr [mm]
26.09.2020 03:00:00 - - - - - - - - - - - - -
26.09.2020 02:00:00 8,2 6,8 7,5 17,4 18,8 9 5 22 12 SSW 1009,4 0 0,0
26.09.2020 01:00:00 8,3 7,4 7,7 17,5 18,8 8 4 18 10 SSW 1009,3 0 0,0
26.09.2020 00:00:00 8,5 7,6 7,8 17,7 18,8 8 4 20 11 SSW 1009,0 0 0,0
25.09.2020 23:00:00 8,3 7,2 7,5 17,7 18,8 6 3 26 14 WSW 1008,7 0 0,2
25.09.2020 22:00:00 8,7 7,3 7,8 17,8 18,8 6 3 17 9 WSW 1008,3 0 0,0
25.09.2020 21:00:00 8,9 6,9 7,8 17,9 18,8 5 3 22 12 W 1007,4 0 0,2
25.09.2020 20:00:00 9,0 6,4 7,7 17,9 18,8 4 2 11 6 SW 1006,6 0 0,0
25.09.2020 19:00:00 8,8 6,4 7,5 17,9 18,8 4 2 18 10 SW 1006,1 11 0,2
25.09.2020 18:00:00 9,2 6,5 8,1 18,0 18,9 10 5 40 21 WSW 1005,7 5 0,0
25.09.2020 17:00:00 11,5 7,2 10,0 17,9 18,8 5 3 30 16 WSW 1004,3 18 0,8
25.09.2020 16:00:00 11,7 8,5 11,7 18,0 18,8 8 5 23 12 SSW 1003,5 28 0,0
25.09.2020 15:00:00 10,9 8,8 9,2 18,0 18,9 9 5 29 16 SW 1003,6 6 1,4
25.09.2020 14:00:00 11,8 6,5 10,5 18,0 18,9 13 7 49 27 SW 1003,0 6 0,0
25.09.2020 13:00:00 12,6 6,2 13,0 18,1 18,9 16 9 40 22 SW 1002,3 9 0,0
25.09.2020 12:00:00 12,0 6,1 13,0 18,1 18,8 14 8 43 23 SW 1003,3 6 0,0
25.09.2020 11:00:00 11,5 6,4 11,9 18,3 18,9 14 8 48 26 SSW 1004,2 2 0,0
25.09.2020 10:00:00 11,1 6,4 10,5 18,4 18,9 16 9 32 18 SW 1004,3 10 0,0
25.09.2020 09:00:00 10,3 6,8 9,2 18,5 18,9 15 8 32 17 SSW 1004,4 0 0,0
25.09.2020 08:00:00 10,0 7,2 9,0 18,7 18,9 10 5 29 16 SSW 1004,5 0 0,0
25.09.2020 07:00:00 10,2 7,6 9,4 18,7 18,9 13 7 29 15 SSW 1004,6 0 0,0
25.09.2020 06:00:00 10,5 8,6 9,7 18,9 18,9 12 6 27 15 SSW 1004,8 0 0,0
25.09.2020 05:00:00 10,8 8,9 10,1 18,9 18,9 12 6 33 18 SSW 1005,2 0 0,0
25.09.2020 04:00:00 11,2 9,8 10,5 19,0 18,9 11 6 26 14 SSW 1004,9 0 0,2
25.09.2020 03:00:00 11,8 11,2 11,2 19,2 18,9 7 4 25 14 SSW 1004,7 0 0,4
25.09.2020 02:00:00 12,0 11,1 11,4 19,2 18,9 11 6 43 23 SSW 1004,6 0 1,4
25.09.2020 01:00:00 14,1 12,1 12,6 19,3 18,9 9 5 38 21 SSW 1003,5 0 0,4
25.09.2020 00:00:00 14,7 12,0 12,9 19,4 18,9 13 7 29 15 SSW 1003,7 0 0,2
24.09.2020 23:00:00 14,2 12,4 12,7 19,5 18,9 9 5 23 12 SSW 1004,2 0 0,0
24.09.2020 22:00:00 13,5 12,6 12,7 19,6 18,9 3 1 16 9 SSE 1004,8 0 0,0
24.09.2020 21:00:00 13,4 12,6 12,7 19,7 18,9 3 2 13 7 S 1005,1 0 0,8
24.09.2020 20:00:00 13,7 13,2 13,2 19,7 18,9 3 2 19 10 S 1005,2 0 3,5
24.09.2020 19:00:00 14,0 13,5 13,5 19,6 18,9 4 2 26 14 SSW 1005,5 0 1,6
24.09.2020 18:00:00 15,7 13,5 14,1 19,6 18,9 14 8 37 20 WSW 1005,5 0 1,8
24.09.2020 17:00:00 17,7 15,7 17,1 19,6 18,9 4 2 16 9 SSW 1004,7 0 0,2
24.09.2020 16:00:00 16,9 15,8 16,0 19,5 18,9 5 3 16 9 S 1005,9 0 1,2
24.09.2020 15:00:00 17,3 15,5 16,1 19,4 18,9 8 4 21 12 SW 1006,5 0 0,6
24.09.2020 14:00:00 19,9 14,7 19,6 19,3 18,9 6 3 17 9 SW 1006,6 0 0,0
24.09.2020 13:00:00 20,7 13,9 25,5 19,3 18,9 6 3 21 12 SW 1006,9 41 0,0
24.09.2020 12:00:00 19,2 12,9 16,5 19,3 18,9 4 2 10 5 SSW 1008,0 29 0,0
24.09.2020 11:00:00 16,9 13,6 16,4 19,3 18,9 4 2 13 7 SSW 1009,1 0 0,0
24.09.2020 10:00:00 17,5 12,6 17,3 19,4 18,9 5 3 12 6 SW 1009,3 0 0,0
24.09.2020 09:00:00 15,8 12,5 13,4 19,5 18,9 3 1 10 5 SSW 1009,7 0 0,0
24.09.2020 08:00:00 15,2 12,1 13,4 19,6 18,9 4 2 21 11 SSW 1009,9 0 0,0
24.09.2020 07:00:00 15,9 12,1 14,7 19,7 18,9 10 6 25 14 SSW 1009,5 0 0,0
24.09.2020 06:00:00 16,1 13,2 14,7 19,8 18,9 10 5 25 14 SSW 1009,6 0 0,0
24.09.2020 05:00:00 16,5 13,2 15,4 19,8 18,9 12 7 27 15 SW 1009,3 0 0,0
24.09.2020 04:00:00 17,7 13,6 16,7 19,9 18,9 14 8 34 18 SSW 1008,9 0 0,0
24.09.2020 03:00:00 18,3 14,4 16,0 19,9 18,9 13 7 32 17 SSW 1008,4 0 0,0
24.09.2020 02:00:00 18,5 14,4 16,0 20,0 18,9 17 9 39 21 SSW 1007,7 0 0,0
24.09.2020 01:00:00 19,4 13,3 15,5 20,1 18,9 11 6 24 13 SW 1007,3 0 0,0
24.09.2020 00:00:00 17,8 12,9 14,6 20,2 18,9 3 2 10 5 S 1006,9 0 0,0
23.09.2020 23:00:00 18,0 13,5 13,4 20,2 18,9 0 0 10 6 N 1007,0 0 0,0
23.09.2020 22:00:00 15,5 13,9 11,7 20,2 18,9 0 0 6 3 N 1007,3 0 0,0
23.09.2020 21:00:00 16,6 13,3 12,3 20,3 19,0 0 0 3 2 N 1007,2 0 0,0
23.09.2020 20:00:00 18,2 13,3 14,0 20,2 18,9 0 0 4 2 N 1006,8 8 0,0
23.09.2020 19:00:00 20,6 13,5 18,6 20,2 18,9 2 1 12 7 SW 1006,9 21 0,0
23.09.2020 18:00:00 22,5 13,0 24,3 20,1 18,9 7 4 18 10 SW 1007,0 58 0,0
23.09.2020 17:00:00 22,8 13,6 27,1 20,0 19,0 6 4 16 9 S 1007,7 57 0,0
23.09.2020 16:00:00 22,6 13,1 27,1 19,9 18,9 9 5 21 12 SW 1008,4 52 0,0
23.09.2020 15:00:00 21,5 13,7 24,3 19,8 18,9 7 4 20 11 SW 1009,0 18 0,0
23.09.2020 14:00:00 20,3 14,0 24,1 19,7 18,9 6 3 19 10 SW 1009,8 10 0,0
23.09.2020 13:00:00 19,9 14,7 23,6 19,7 18,9 6 3 20 11 SSW 1010,2 21 0,0
23.09.2020 12:00:00 18,4 14,7 19,3 19,7 18,9 6 3 14 7 SW 1010,8 1 0,0
23.09.2020 11:00:00 17,0 15,5 16,6 19,7 18,9 3 2 11 6 SSW 1011,2 0 0,0
23.09.2020 10:00:00 16,2 15,4 16,2 19,8 19,0 4 2 16 9 SSW 1011,3 0 0,0
23.09.2020 09:00:00 16,0 15,4 15,8 19,8 19,0 6 4 16 9 SW 1011,2 0 0,0
23.09.2020 08:00:00 15,9 15,4 15,7 19,9 19,0 6 4 16 9 SW 1010,9 0 0,0
23.09.2020 07:00:00 15,9 15,6 15,5 20,0 19,0 6 3 13 7 SSW 1010,7 0 0,0
23.09.2020 06:00:00 15,8 15,5 15,2 20,0 19,0 6 4 16 9 SSW 1010,7 0 0,2
23.09.2020 05:00:00 15,8 15,5 15,5 20,1 19,0 7 4 19 10 SSW 1010,7 0 0,2
23.09.2020 04:00:00 15,9 15,6 15,5 20,2 19,0 8 5 19 10 SSW 1010,8 0 1,4
23.09.2020 03:00:00 15,9 15,6 15,5 20,2 19,0 5 3 16 8 SSW 1011,1 0 2,3
23.09.2020 02:00:00 16,1 15,8 15,7 20,3 19,0 7 4 24 13 SSW 1011,1 0 4,8
23.09.2020 01:00:00 16,7 16,1 16,1 20,4 19,0 4 2 11 6 S 1011,1 0 0,2
23.09.2020 00:00:00 16,7 16,2 16,1 20,4 19,0 3 2 9 5 SSE 1011,0 0 3,6
22.09.2020 23:00:00 17,0 16,4 16,3 20,5 19,0 3 1 24 13 SSE 1010,8 0 7,3
22.09.2020 22:00:00 19,8 15,0 17,8 20,5 19,0 4 2 13 7 SSW 1010,1 0 0,0
22.09.2020 21:00:00 20,0 14,6 16,8 20,5 18,9 5 3 11 6 SSW 1010,0 0 0,0
22.09.2020 20:00:00 20,7 14,3 18,3 20,4 18,9 5 3 13 7 SSW 1009,5 10 0,0
22.09.2020 19:00:00 22,4 14,0 21,7 20,2 19,0 5 3 13 7 WSW 1008,9 29 0,0
22.09.2020 18:00:00 23,1 13,8 24,1 20,2 19,0 7 4 18 10 WSW 1008,9 34 0,0
22.09.2020 17:00:00 24,7 14,5 26,3 20,1 19,0 7 4 17 9 WSW 1009,3 44 0,0
22.09.2020 16:00:00 24,9 14,4 27,3 19,9 19,0 6 3 19 10 SW 1010,0 32 0,0
22.09.2020 15:00:00 23,2 14,5 27,5 19,8 19,0 11 6 24 13 WSW 1010,8 51 0,0
22.09.2020 14:00:00 22,4 15,3 26,6 19,7 19,0 6 3 26 14 WSW 1011,6 33 0,0
22.09.2020 13:00:00 22,3 14,9 24,5 19,6 19,0 8 5 28 15 SW 1012,1 35 0,0
22.09.2020 12:00:00 20,9 14,3 22,9 19,6 19,0 11 6 25 14 SW 1012,8 29 0,0
22.09.2020 11:00:00 19,6 14,4 20,1 19,6 18,9 11 6 25 14 SSW 1013,2 17 0,0
22.09.2020 10:00:00 18,5 15,4 18,6 19,7 19,0 6 3 15 8 WSW 1013,5 29 0,0
22.09.2020 09:00:00 17,2 14,8 15,5 19,7 19,0 2 1 5 3 WSW 1013,5 0 0,0
22.09.2020 08:00:00 16,8 14,4 13,6 19,9 19,0 3 1 11 6 SSW 1013,7 0 0,0
22.09.2020 07:00:00 14,5 14,0 11,2 19,9 19,0 0 0 4 2 N 1013,8 0 0,0
22.09.2020 06:00:00 14,4 13,4 10,6 20,0 19,0 0 0 2 1 N 1013,6 0 0,0
22.09.2020 05:00:00 14,6 13,5 11,1 20,1 19,0 0 0 4 2 N 1013,8 0 0,0
22.09.2020 04:00:00 14,4 13,4 11,2 20,2 19,0 2 1 4 2 NNE 1013,9 0 0,0
22.09.2020 03:00:00 14,4 13,1 11,2 20,4 19,0 0 0 3 2 N 1014,4 0 0,0
22.09.2020 02:00:00 15,0 13,2 11,5 20,5 19,0 0 0 4 2 N 1014,4 0 0,0
22.09.2020 01:00:00 15,4 13,2 11,4 20,6 19,0 2 1 6 3 NNE 1014,6 0 0,0
22.09.2020 00:00:00 15,4 13,6 11,3 20,6 19,0 3 1 7 4 N 1014,8 0 0,0
21.09.2020 23:00:00 16,2 13,1 11,7 20,7 19,0 0 0 5 3 N 1014,9 0 0,0
21.09.2020 22:00:00 17,8 13,5 12,4 20,7 19,0 0 0 4 2 N 1014,5 0 0,0
21.09.2020 21:00:00 19,2 12,9 13,6 20,7 19,0 0 0 7 4 N 1014,1 0 0,0
21.09.2020 20:00:00 20,8 14,7 17,2 20,7 19,0 2 1 6 4 S 1013,7 0 0,0
21.09.2020 19:00:00 22,4 14,5 21,3 20,6 19,0 4 2 14 8 S 1013,1 0 0,0
21.09.2020 18:00:00 23,4 14,4 23,3 20,5 19,0 8 4 19 10 SSW 1013,1 17 0,0
21.09.2020 17:00:00 24,8 14,0 26,3 20,3 19,0 10 5 21 11 SW 1013,0 13 0,0
21.09.2020 16:00:00 24,8 12,1 26,5 20,1 19,0 6 3 22 12 WNW 1013,5 27 0,0
21.09.2020 15:00:00 25,9 12,7 29,0 20,0 19,0 6 3 20 11 WSW 1013,4 43 0,0
21.09.2020 14:00:00 25,0 14,5 33,0 19,8 19,0 7 4 21 11 W 1014,0 60 0,0
21.09.2020 13:00:00 24,0 14,7 32,0 19,8 19,0 9 5 22 12 SSW 1014,5 60 0,0
21.09.2020 12:00:00 22,5 15,6 29,0 19,8 19,0 9 5 20 11 WSW 1014,9 60 0,0
21.09.2020 11:00:00 21,0 15,3 24,2 19,8 19,0 8 4 17 9 SW 1015,3 58 0,0
21.09.2020 10:00:00 19,1 14,8 15,5 19,9 19,0 5 3 11 6 SW 1015,3 60 0,0
21.09.2020 09:00:00 15,0 15,0 11,6 20,1 19,0 0 0 4 2 N 1016,0 23 0,0
21.09.2020 08:00:00 14,1 13,9 10,3 20,1 19,0 0 0 6 3 N 1015,8 0 0,0
21.09.2020 07:00:00 14,1 13,9 10,1 20,3 19,0 3 2 5 3 N 1015,3 0 0,0
21.09.2020 06:00:00 14,6 14,3 10,5 20,4 19,0 0 0 2 1 N 1015,0 0 0,0
21.09.2020 05:00:00 15,4 14,6 11,7 20,5 19,0 0 0 5 3 N 1015,1 0 0,0
21.09.2020 04:00:00 15,8 15,0 11,7 20,6 19,0 0 0 4 2 N 1015,0 0 0,0
21.09.2020 03:00:00 17,0 15,2 13,4 20,7 19,0 0 0 5 3 N 1015,1 0 0,0
21.09.2020 02:00:00 17,1 15,4 14,0 20,7 19,0 0 0 6 3 N 1015,2 0 0,0
21.09.2020 01:00:00 17,4 15,9 14,4 20,8 19,0 0 0 5 3 N 1015,3 0 0,0
21.09.2020 00:00:00 17,3 16,0 14,5 20,9 19,0 0 0 4 2 N 1015,4 0 0,0
20.09.2020 23:00:00 17,9 16,1 14,1 20,9 19,0 0 0 4 2 N 1015,2 0 0,0
20.09.2020 22:00:00 18,7 15,9 15,2 21,0 19,0 0 0 6 4 N 1015,1 0 0,0
20.09.2020 21:00:00 19,7 16,0 16,5 20,9 19,0 3 2 14 8 SSW 1014,4 0 0,0
20.09.2020 20:00:00 21,0 16,0 19,8 20,9 19,0 8 4 18 10 SSW 1013,8 0 0,0
20.09.2020 19:00:00 22,4 16,2 21,3 20,8 19,0 6 3 22 12 SW 1013,1 0 0,0
20.09.2020 18:00:00 24,1 16,4 25,5 20,7 19,0 4 2 8 4 SW 1012,8 0 0,0
20.09.2020 17:00:00 24,0 15,8 25,8 20,6 19,0 3 2 11 6 W 1012,8 0 0,0
20.09.2020 16:00:00 23,9 16,4 26,5 20,4 19,0 4 2 15 8 WSW 1013,1 18 0,0
20.09.2020 15:00:00 24,0 16,5 28,5 20,2 19,0 8 4 18 10 SW 1013,5 43 0,0
20.09.2020 14:00:00 23,6 16,6 33,1 20,1 19,0 7 4 19 10 W 1013,9 60 0,0
20.09.2020 13:00:00 22,7 16,9 26,5 20,0 19,0 6 3 16 8 WSW 1014,3 51 0,0
20.09.2020 12:00:00 20,7 17,3 20,5 20,0 19,0 6 3 15 8 W 1014,8 45 0,0
20.09.2020 11:00:00 18,7 16,5 18,5 20,0 19,0 4 2 10 5 SW 1015,2 3 0,0
20.09.2020 10:00:00 17,1 16,0 16,6 20,1 19,0 0 0 4 2 N 1015,3 0 0,0
20.09.2020 09:00:00 16,1 15,6 15,5 20,1 19,0 0 0 4 2 N 1014,9 0 0,0
20.09.2020 08:00:00 15,7 15,2 15,1 20,2 19,0 0 0 14 7 N 1014,7 0 0,2
20.09.2020 07:00:00 15,9 15,9 14,5 20,4 19,0 4 2 9 5 SSW 1014,5 0 0,0
20.09.2020 06:00:00 15,4 15,4 13,1 20,5 19,0 3 2 6 4 NNE 1014,0 0 0,0
20.09.2020 05:00:00 15,6 15,6 12,9 20,5 19,0 0 0 4 2 N 1014,2 0 0,0
20.09.2020 04:00:00 15,7 15,7 12,8 20,6 19,0 0 0 5 3 N 1014,4 0 0,2
20.09.2020 03:00:00 15,8 15,8 13,0 20,8 19,0 4 2 8 4 NNE 1014,6 0 0,0

tt = Température de l'air
td = dewpoint
tt 5cm = Température de l'air 5cm
tt -20cm = Température de l'air -20cm
tt -100cm = Température de l'air -100cm
ff = Vitesse du vent
fx = gusts
dd = Direction du vent
ppp = reduced air pressure
sd = Ensoleillement
rr = Quantités de précipitations

stations d'obs. à proximité